createdAt,value
2019-03-21T00:00:51.402Z,12.57
2019-03-21T00:03:21.352Z,12.57
2019-03-21T00:05:51.344Z,12.70
2019-03-21T00:08:21.545Z,12.50
2019-03-21T00:11:43.001Z,12.33
2019-03-21T00:14:28.450Z,12.40
2019-03-21T00:16:58.874Z,11.73
2019-03-21T00:19:29.305Z,12.00
2019-03-21T00:21:59.325Z,12.47
2019-03-21T00:24:29.292Z,12.10
2019-03-21T00:26:59.273Z,11.43
2019-03-21T00:29:29.260Z,11.13
2019-03-21T00:31:59.461Z,11.50
2019-03-21T00:34:29.374Z,12.30
2019-03-21T00:36:59.400Z,11.47
2019-03-21T00:39:32.996Z,11.73
2019-03-21T00:42:01.403Z,11.13
2019-03-21T00:44:31.401Z,11.00
2019-03-21T00:47:01.560Z,10.97
2019-03-21T00:49:31.484Z,10.57
2019-03-21T00:52:01.460Z,12.00
2019-03-21T00:54:31.789Z,11.17
2019-03-21T00:57:01.680Z,11.03
2019-03-21T00:59:31.701Z,13.27
2019-03-21T01:02:01.790Z,12.37
2019-03-21T01:04:33.888Z,12.23
2019-03-21T01:07:05.097Z,12.40
2019-03-21T01:09:35.468Z,13.33
2019-03-21T01:12:05.388Z,13.47
2019-03-21T01:14:35.619Z,13.67
2019-03-21T01:17:05.612Z,14.03
2019-03-21T01:19:35.721Z,14.03
2019-03-21T01:22:05.618Z,14.77
2019-03-21T01:24:35.605Z,14.83
2019-03-21T01:27:05.577Z,14.30
2019-03-21T01:29:35.937Z,14.97
2019-03-21T01:32:05.969Z,13.93
2019-03-21T01:34:35.944Z,14.17
2019-03-21T01:37:05.961Z,14.67
2019-03-21T01:39:35.905Z,14.13
2019-03-21T01:42:05.877Z,14.37
2019-03-21T01:44:40.943Z,14.17
2019-03-21T01:47:07.528Z,13.53
2019-03-21T01:49:37.818Z,13.23
2019-03-21T01:52:07.739Z,13.40
2019-03-21T01:54:37.734Z,14.27
2019-03-21T01:57:08.202Z,13.90
2019-03-21T01:59:38.904Z,13.87
2019-03-21T02:02:08.890Z,14.80
2019-03-21T02:04:39.247Z,14.43
2019-03-21T02:07:09.203Z,14.23
2019-03-21T02:09:39.491Z,14.97
2019-03-21T02:12:10.141Z,14.77
2019-03-21T02:14:51.538Z,13.80
2019-03-21T02:17:12.173Z,14.67
2019-03-21T02:19:42.173Z,14.53
2019-03-21T02:22:12.155Z,15.13
2019-03-21T02:24:42.516Z,15.80
2019-03-21T02:27:12.400Z,15.80
2019-03-21T02:29:42.332Z,15.20
2019-03-21T02:32:12.234Z,14.90
2019-03-21T02:34:42.530Z,14.87
2019-03-21T02:37:12.529Z,15.53
2019-03-21T02:39:42.468Z,14.63
2019-03-21T02:42:12.399Z,15.57
2019-03-21T02:44:42.738Z,15.00
2019-03-21T02:47:12.813Z,15.57
2019-03-21T02:49:42.723Z,14.60
2019-03-21T02:52:12.763Z,15.87
2019-03-21T02:54:42.794Z,15.03
2019-03-21T02:57:13.101Z,15.63
2019-03-21T02:59:43.081Z,15.43
2019-03-21T03:02:13.018Z,14.97
2019-03-21T03:04:43.270Z,13.90
2019-03-21T03:07:13.578Z,13.80
2019-03-21T03:09:43.567Z,13.70
2019-03-21T03:12:13.676Z,14.17
2019-03-21T03:14:43.637Z,14.10
2019-03-21T03:17:13.569Z,14.93
2019-03-21T03:19:43.548Z,13.90
2019-03-21T03:22:13.477Z,13.70
2019-03-21T03:24:43.450Z,14.17
2019-03-21T03:27:13.814Z,14.00
2019-03-21T03:29:44.787Z,14.87
2019-03-21T03:32:14.810Z,15.10
2019-03-21T03:34:44.790Z,15.30
2019-03-21T03:37:14.978Z,15.37
2019-03-21T03:39:45.261Z,15.40
2019-03-21T03:42:15.201Z,15.83
2019-03-21T03:44:46.303Z,16.93
2019-03-21T03:47:16.290Z,15.10
2019-03-21T03:49:46.348Z,16.07
2019-03-21T03:52:16.985Z,15.70
2019-03-21T03:54:46.962Z,16.33
2019-03-21T03:57:17.361Z,16.23
2019-03-21T03:59:47.353Z,16.13
2019-03-21T04:02:18.501Z,16.00
2019-03-21T04:04:49.140Z,15.90
2019-03-21T04:07:19.073Z,16.80
2019-03-21T04:09:48.976Z,16.57
2019-03-21T04:12:19.080Z,16.43
2019-03-21T04:14:49.059Z,16.13
2019-03-21T04:17:19.081Z,16.10
2019-03-21T04:19:49.042Z,16.20
2019-03-21T04:22:19.423Z,16.90
2019-03-21T04:24:49.379Z,15.83
2019-03-21T04:27:19.390Z,15.37
2019-03-21T04:29:49.312Z,14.83
2019-03-21T04:32:19.261Z,15.43
2019-03-21T04:34:49.166Z,13.60
2019-03-21T04:37:19.147Z,14.87
2019-03-21T04:39:49.297Z,14.63
2019-03-21T04:42:19.248Z,14.60
2019-03-21T04:44:49.548Z,15.43
2019-03-21T04:47:19.547Z,16.03
2019-03-21T04:49:49.564Z,15.07
2019-03-21T04:52:19.840Z,14.17
2019-03-21T04:54:50.056Z,15.13
2019-03-21T04:57:20.080Z,15.83
2019-03-21T04:59:50.398Z,15.17
2019-03-21T05:02:20.708Z,15.37
2019-03-21T05:04:50.794Z,15.47
2019-03-21T05:07:20.801Z,15.60
2019-03-21T05:09:51.081Z,14.90
2019-03-21T05:12:21.019Z,15.60
2019-03-21T05:14:51.208Z,14.53
2019-03-21T05:17:21.926Z,15.27
2019-03-21T05:19:52.589Z,14.13
2019-03-21T05:22:22.618Z,15.47
2019-03-21T05:24:52.547Z,15.70
2019-03-21T05:27:22.572Z,15.77
2019-03-21T05:29:52.610Z,15.13
2019-03-21T05:32:22.990Z,14.67
2019-03-21T05:34:53.300Z,16.40
2019-03-21T05:37:23.209Z,14.40
2019-03-21T05:39:53.164Z,14.67
2019-03-21T05:42:24.421Z,14.20
2019-03-21T05:44:54.705Z,14.77
2019-03-21T05:47:24.605Z,15.03
2019-03-21T05:49:54.844Z,15.47
2019-03-21T05:52:24.913Z,15.27
2019-03-21T05:54:54.930Z,14.97
2019-03-21T05:57:24.894Z,15.90
2019-03-21T05:59:55.217Z,15.20
2019-03-21T06:02:25.174Z,14.20
2019-03-21T06:04:55.088Z,14.60
2019-03-21T06:07:52.467Z,14.30
2019-03-21T06:10:22.480Z,15.77
2019-03-21T06:12:52.371Z,16.23
2019-03-21T06:15:25.330Z,14.80
2019-03-21T06:18:16.567Z,14.83
2019-03-21T06:21:00.224Z,14.27
2019-03-21T06:24:08.213Z,15.20
2019-03-21T06:27:17.301Z,13.67
2019-03-21T06:29:47.540Z,14.03
2019-03-21T06:32:17.842Z,14.00
2019-03-21T06:34:47.785Z,14.57
2019-03-21T06:37:18.580Z,14.60
2019-03-21T06:39:48.573Z,13.77
2019-03-21T06:42:18.590Z,13.63
2019-03-21T06:44:48.537Z,13.87
2019-03-21T06:47:18.853Z,13.30
2019-03-21T06:49:48.805Z,11.77
2019-03-21T06:52:18.733Z,12.73
2019-03-21T06:54:48.761Z,12.27
2019-03-21T06:57:19.060Z,11.80
2019-03-21T06:59:48.964Z,11.47
2019-03-21T07:02:18.954Z,11.20
2019-03-21T07:04:48.941Z,11.53
2019-03-21T07:07:19.010Z,11.07
2019-03-21T07:09:49.362Z,11.43
2019-03-21T07:12:19.409Z,11.57
2019-03-21T07:14:49.451Z,11.23
2019-03-21T07:17:19.920Z,11.67
2019-03-21T07:20:00.605Z,11.37
2019-03-21T07:22:30.698Z,10.70
2019-03-21T07:25:00.682Z,10.60
2019-03-21T07:27:30.712Z,9.90
2019-03-21T07:30:00.960Z,11.13
2019-03-21T07:32:33.661Z,10.43
2019-03-21T07:35:02.677Z,9.40
2019-03-21T07:37:34.245Z,9.77
2019-03-21T07:40:04.790Z,10.80
2019-03-21T07:42:34.785Z,9.97
2019-03-21T07:45:05.888Z,9.63
2019-03-21T07:47:35.966Z,9.97
2019-03-21T07:50:08.958Z,10.30
2019-03-21T07:52:39.374Z,9.97
2019-03-21T07:55:10.196Z,10.50
2019-03-21T07:57:40.145Z,10.20
2019-03-21T08:00:12.404Z,11.13
2019-03-21T08:02:42.974Z,10.27
2019-03-21T08:05:12.985Z,10.10
2019-03-21T08:07:43.018Z,10.17
2019-03-21T08:10:13.067Z,10.10
2019-03-21T08:12:42.992Z,10.40
2019-03-21T08:15:13.478Z,10.40
2019-03-21T08:17:43.796Z,9.67
2019-03-21T08:20:14.426Z,9.93
2019-03-21T08:22:44.901Z,10.00
2019-03-21T08:25:14.904Z,10.30
2019-03-21T08:27:44.842Z,10.20
2019-03-21T08:30:29.915Z,9.93
2019-03-21T08:33:03.077Z,10.50
2019-03-21T08:35:33.053Z,9.77
2019-03-21T08:38:03.070Z,9.03
2019-03-21T08:40:33.021Z,9.43
2019-03-21T08:43:04.369Z,9.80
2019-03-21T08:45:34.700Z,9.70
2019-03-21T08:48:05.628Z,10.07
2019-03-21T08:50:35.641Z,10.10
2019-03-21T08:53:05.586Z,10.67
2019-03-21T08:55:35.947Z,10.77
2019-03-21T08:58:05.985Z,10.37
2019-03-21T09:00:36.114Z,10.23
2019-03-21T09:03:06.121Z,9.93
2019-03-21T09:05:36.108Z,9.93
2019-03-21T09:08:06.056Z,10.10
2019-03-21T09:10:37.182Z,9.77
2019-03-21T09:13:08.876Z,9.70
2019-03-21T09:15:39.882Z,10.30
2019-03-21T09:18:09.851Z,11.27
2019-03-21T09:20:40.250Z,10.40
2019-03-21T09:23:10.255Z,9.80
2019-03-21T09:25:40.581Z,9.67
2019-03-21T09:28:10.572Z,9.60
2019-03-21T09:30:40.545Z,9.97
2019-03-21T09:33:10.985Z,10.10
2019-03-21T09:35:41.381Z,9.23
2019-03-21T09:38:11.402Z,9.83
2019-03-21T09:40:41.390Z,9.80
2019-03-21T09:43:11.630Z,10.07
2019-03-21T09:45:41.684Z,10.13
2019-03-21T09:48:11.692Z,9.27
2019-03-21T09:50:41.642Z,9.40
2019-03-21T09:53:11.616Z,8.90
2019-03-21T09:55:41.814Z,9.17
2019-03-21T09:58:11.773Z,8.87
2019-03-21T10:00:42.054Z,9.37
2019-03-21T10:03:12.006Z,9.27
2019-03-21T10:05:41.945Z,9.37
2019-03-21T10:08:11.876Z,10.50
2019-03-21T10:10:41.882Z,10.27
2019-03-21T10:13:11.848Z,9.10
2019-03-21T10:15:41.772Z,8.60
2019-03-21T10:18:11.685Z,8.50
2019-03-21T10:20:42.209Z,8.73
2019-03-21T10:23:12.181Z,9.53
2019-03-21T10:25:42.276Z,8.67
2019-03-21T10:28:12.749Z,8.67
2019-03-21T10:30:43.589Z,7.77
2019-03-21T10:33:14.790Z,9.43
2019-03-21T10:35:44.796Z,8.47
2019-03-21T10:38:14.705Z,8.10
2019-03-21T10:40:44.701Z,8.40
2019-03-21T10:43:15.048Z,7.53
2019-03-21T10:45:45.057Z,8.07
2019-03-21T10:48:15.354Z,8.23
2019-03-21T10:50:45.678Z,8.20
2019-03-21T10:53:15.601Z,8.10
2019-03-21T10:55:45.683Z,7.50
2019-03-21T10:58:15.644Z,7.08
2019-03-21T11:00:45.605Z,7.47
2019-03-21T11:03:15.584Z,7.60
2019-03-21T11:05:45.514Z,7.60
2019-03-21T11:08:15.489Z,7.00
2019-03-21T11:10:47.220Z,7.72
2019-03-21T11:13:17.056Z,7.58
2019-03-21T11:15:47.032Z,7.22
2019-03-21T11:18:17.031Z,7.70
2019-03-21T11:20:46.945Z,7.37
2019-03-21T11:23:16.898Z,7.83
2019-03-21T11:25:46.872Z,7.62
2019-03-21T11:28:17.741Z,7.35
2019-03-21T11:30:47.992Z,6.87
2019-03-21T11:33:17.930Z,6.92
2019-03-21T11:35:47.834Z,7.75
2019-03-21T11:38:18.052Z,6.78
2019-03-21T11:40:48.552Z,7.50
2019-03-21T11:43:20.001Z,7.75
2019-03-21T11:45:50.360Z,6.55
2019-03-21T11:48:20.435Z,6.80
2019-03-21T11:50:50.935Z,7.10
2019-03-21T11:53:20.870Z,6.97
2019-03-21T11:55:51.152Z,6.90
2019-03-21T11:58:22.118Z,6.50
2019-03-21T12:00:52.089Z,6.83
2019-03-21T12:03:24.336Z,6.97
2019-03-21T12:05:53.952Z,6.80
2019-03-21T12:08:23.869Z,6.72
2019-03-21T12:10:53.846Z,6.37
2019-03-21T12:13:24.260Z,6.50
2019-03-21T12:15:54.160Z,6.62
2019-03-21T12:18:24.069Z,6.85
2019-03-21T12:20:54.709Z,7.12
2019-03-21T12:23:24.622Z,6.60
2019-03-21T12:25:54.632Z,6.90
2019-03-21T12:28:24.596Z,7.67
2019-03-21T12:30:54.980Z,7.10
2019-03-21T12:33:24.965Z,7.12
2019-03-21T12:35:55.323Z,7.17
2019-03-21T12:38:25.417Z,7.60
2019-03-21T12:40:55.759Z,7.10
2019-03-21T12:43:25.760Z,6.75
2019-03-21T12:45:56.517Z,7.08
2019-03-21T12:48:26.501Z,7.85
2019-03-21T12:50:56.465Z,6.70
2019-03-21T12:53:26.457Z,8.05
2019-03-21T12:55:56.428Z,7.15
2019-03-21T12:58:26.442Z,7.22
2019-03-21T13:00:56.642Z,6.78
2019-03-21T13:03:26.644Z,7.70
2019-03-21T13:05:56.555Z,7.60
2019-03-21T13:08:33.653Z,7.03
2019-03-21T13:11:00.790Z,6.42
2019-03-21T13:13:30.298Z,7.47
2019-03-21T13:16:00.276Z,7.50
2019-03-21T13:18:30.274Z,6.80
2019-03-21T13:21:00.258Z,7.40
2019-03-21T13:23:30.586Z,6.78
2019-03-21T13:26:00.894Z,7.55
2019-03-21T13:28:30.881Z,7.22
2019-03-21T13:31:00.877Z,7.47
2019-03-21T13:33:30.922Z,7.10
2019-03-21T13:36:01.161Z,7.28
2019-03-21T13:38:31.982Z,8.08
2019-03-21T13:41:02.074Z,7.17
2019-03-21T13:43:32.098Z,7.10
2019-03-21T13:46:02.467Z,8.10
2019-03-21T13:48:32.460Z,7.67
2019-03-21T13:51:02.409Z,7.55
2019-03-21T13:53:32.449Z,7.58
2019-03-21T13:56:02.934Z,7.90
2019-03-21T13:58:33.034Z,7.47
2019-03-21T14:01:02.949Z,7.30
2019-03-21T14:03:33.258Z,7.28
2019-03-21T14:06:03.411Z,8.08
2019-03-21T14:08:33.742Z,7.33
2019-03-21T14:11:05.137Z,7.87
2019-03-21T14:13:36.869Z,7.47
2019-03-21T14:16:07.276Z,7.08
2019-03-21T14:18:37.608Z,6.87
2019-03-21T14:21:07.612Z,7.95
2019-03-21T14:23:43.101Z,7.12
2019-03-21T14:26:10.621Z,7.05
2019-03-21T14:28:40.631Z,7.10
2019-03-21T14:31:10.770Z,7.37
2019-03-21T14:33:40.966Z,7.12
2019-03-21T14:36:10.944Z,7.10
2019-03-21T14:38:41.542Z,8.15
2019-03-21T14:41:11.601Z,7.83
2019-03-21T14:43:41.713Z,7.22
2019-03-21T14:46:12.112Z,7.37
2019-03-21T14:48:43.183Z,6.62
2019-03-21T14:51:13.570Z,7.22
2019-03-21T14:53:44.853Z,6.97
2019-03-21T14:56:15.436Z,8.35
2019-03-21T14:58:46.550Z,8.30
2019-03-21T15:01:16.575Z,7.03
2019-03-21T15:03:46.973Z,7.97
2019-03-21T15:06:17.388Z,8.48
2019-03-21T15:08:47.883Z,7.65
2019-03-21T15:11:19.180Z,7.80
2019-03-21T15:13:49.541Z,6.97
2019-03-21T15:16:19.620Z,7.85
2019-03-21T15:18:49.897Z,8.10
2019-03-21T15:21:19.839Z,7.33
2019-03-21T15:23:58.832Z,7.50
2019-03-21T15:26:21.549Z,7.62
2019-03-21T15:28:51.442Z,7.62
2019-03-21T15:31:21.595Z,7.92
2019-03-21T15:33:51.613Z,7.42
2019-03-21T15:36:21.869Z,7.28
2019-03-21T15:38:51.797Z,7.37
2019-03-21T15:41:21.752Z,7.25
2019-03-21T15:43:52.017Z,7.60
2019-03-21T15:46:23.573Z,7.83
2019-03-21T15:48:53.539Z,7.78
2019-03-21T15:51:24.050Z,8.50
2019-03-21T15:53:56.636Z,7.65
2019-03-21T15:56:26.565Z,7.25
2019-03-21T15:58:56.614Z,8.58
2019-03-21T16:01:26.955Z,8.63
2019-03-21T16:03:56.943Z,8.33
2019-03-21T16:06:26.857Z,7.60
2019-03-21T16:08:56.846Z,8.23
2019-03-21T16:11:27.129Z,7.83
2019-03-21T16:13:57.349Z,8.20
2019-03-21T16:16:27.365Z,8.00
2019-03-21T16:18:57.336Z,8.50
2019-03-21T16:21:27.992Z,8.53
2019-03-21T16:24:05.213Z,9.47
2019-03-21T16:26:29.687Z,10.17
2019-03-21T16:28:59.670Z,9.03
2019-03-21T16:31:29.718Z,9.60
2019-03-21T16:34:00.125Z,10.63
2019-03-21T16:36:30.132Z,9.10
2019-03-21T16:39:00.041Z,9.97
2019-03-21T16:41:30.517Z,10.30
2019-03-21T16:44:00.957Z,10.17
2019-03-21T16:46:31.168Z,10.30
2019-03-21T16:49:01.813Z,9.83
2019-03-21T16:51:32.126Z,9.93
2019-03-21T16:54:02.157Z,9.50
2019-03-21T16:56:32.585Z,9.60
2019-03-21T16:59:03.014Z,10.87
2019-03-21T17:01:33.633Z,10.23
2019-03-21T17:04:04.097Z,9.20
2019-03-21T17:06:34.008Z,9.97
2019-03-21T17:09:05.925Z,10.27
2019-03-21T17:11:36.168Z,11.27
2019-03-21T17:14:06.547Z,9.43
2019-03-21T17:16:41.731Z,10.13
2019-03-21T17:19:12.082Z,9.60
2019-03-21T17:21:42.687Z,9.30
2019-03-21T17:24:12.693Z,9.23
2019-03-21T17:26:42.670Z,9.70
2019-03-21T17:29:12.778Z,10.43
2019-03-21T17:31:43.557Z,10.33
2019-03-21T17:34:13.933Z,10.80
2019-03-21T17:36:44.210Z,10.47
2019-03-21T17:39:14.249Z,10.73
2019-03-21T17:41:44.208Z,11.10
2019-03-21T17:44:14.493Z,11.50
2019-03-21T17:46:45.464Z,10.40
2019-03-21T17:49:15.669Z,10.33
2019-03-21T17:51:51.750Z,11.07
2019-03-21T17:54:21.761Z,11.57
2019-03-21T17:56:52.029Z,11.00
2019-03-21T17:59:22.254Z,11.30
2019-03-21T18:01:52.252Z,10.77
2019-03-21T18:04:22.366Z,10.67
2019-03-21T18:06:53.550Z,9.67
2019-03-21T18:09:23.537Z,10.33
2019-03-21T18:11:53.466Z,9.70
2019-03-21T18:14:23.460Z,9.80
2019-03-21T18:16:53.398Z,10.20
2019-03-21T18:19:23.324Z,10.17
2019-03-21T18:21:53.253Z,10.17
2019-03-21T18:24:23.159Z,10.27
2019-03-21T18:26:53.571Z,10.70
2019-03-21T18:29:23.560Z,11.53
2019-03-21T18:31:53.680Z,11.07
2019-03-21T18:34:23.628Z,11.07
2019-03-21T18:36:53.597Z,11.90
2019-03-21T18:39:23.512Z,11.70
2019-03-21T18:41:53.453Z,12.07
2019-03-21T18:44:23.369Z,11.00
2019-03-21T18:46:53.638Z,11.37
2019-03-21T18:49:23.569Z,11.03
2019-03-21T18:51:56.486Z,11.37
2019-03-21T18:54:26.457Z,11.43
2019-03-21T18:56:56.799Z,10.87
2019-03-21T18:59:26.812Z,10.00
2019-03-21T19:01:58.658Z,10.90
2019-03-21T19:04:28.485Z,11.60
2019-03-21T19:06:58.550Z,11.00
2019-03-21T19:09:28.984Z,11.07
2019-03-21T19:11:58.994Z,11.67
2019-03-21T19:14:29.353Z,11.67
2019-03-21T19:16:59.249Z,11.70
2019-03-21T19:19:29.460Z,11.20
2019-03-21T19:21:59.368Z,12.27
2019-03-21T19:24:29.383Z,12.60
2019-03-21T19:27:00.161Z,12.30
2019-03-21T19:29:30.484Z,12.67
2019-03-21T19:32:00.484Z,12.90
2019-03-21T19:34:30.502Z,12.23
2019-03-21T19:37:00.830Z,12.73
2019-03-21T19:39:30.850Z,11.57
2019-03-21T19:42:00.827Z,11.67
2019-03-21T19:44:30.757Z,12.20
2019-03-21T19:47:02.496Z,11.97
2019-03-21T19:49:32.413Z,11.40
2019-03-21T19:52:05.335Z,11.23
2019-03-21T19:54:34.402Z,11.27
2019-03-21T19:57:04.641Z,11.07
2019-03-21T19:59:35.010Z,11.03
2019-03-21T20:02:05.392Z,12.00
2019-03-21T20:04:35.420Z,11.33
2019-03-21T20:07:05.686Z,11.77
2019-03-21T20:09:35.643Z,11.50
2019-03-21T20:12:05.976Z,11.60
2019-03-21T20:14:35.913Z,10.83
2019-03-21T20:17:06.028Z,10.50
2019-03-21T20:19:36.017Z,11.27
2019-03-21T20:22:06.731Z,10.90
2019-03-21T20:24:37.093Z,10.43
2019-03-21T20:27:09.821Z,10.30
2019-03-21T20:29:38.835Z,10.50
2019-03-21T20:32:20.180Z,10.57
2019-03-21T20:34:40.921Z,11.30
2019-03-21T20:37:11.170Z,10.57
2019-03-21T20:39:41.113Z,10.47
2019-03-21T20:42:11.038Z,11.10
2019-03-21T20:44:41.828Z,10.37
2019-03-21T20:47:12.174Z,10.37
2019-03-21T20:49:42.590Z,10.47
2019-03-21T20:52:12.573Z,11.07
2019-03-21T20:54:42.919Z,11.13
2019-03-21T20:57:12.828Z,10.93
2019-03-21T20:59:43.064Z,10.60
2019-03-21T21:02:13.180Z,11.10
2019-03-21T21:04:43.513Z,11.17
2019-03-21T21:07:13.442Z,11.80
2019-03-21T21:09:43.355Z,10.27
2019-03-21T21:12:13.348Z,10.50
2019-03-21T21:14:43.244Z,11.73
2019-03-21T21:17:13.501Z,11.33
2019-03-21T21:19:44.221Z,12.97
2019-03-21T21:22:14.149Z,12.87
2019-03-21T21:24:44.369Z,12.73
2019-03-21T21:27:14.698Z,12.73
2019-03-21T21:29:45.231Z,13.07
2019-03-21T21:32:15.361Z,12.57
2019-03-21T21:34:45.769Z,12.80
2019-03-21T21:37:15.759Z,13.30
2019-03-21T21:39:45.822Z,13.37
2019-03-21T21:42:15.809Z,13.53
2019-03-21T21:44:45.791Z,12.67
2019-03-21T21:47:16.063Z,13.83
2019-03-21T21:49:46.286Z,13.70
2019-03-21T21:52:16.360Z,13.37
2019-03-21T21:54:49.077Z,13.40
2019-03-21T21:57:17.903Z,12.83
2019-03-21T21:59:47.801Z,12.90
2019-03-21T22:02:17.845Z,13.60
2019-03-21T22:04:48.123Z,13.27
2019-03-21T22:07:18.032Z,12.13
2019-03-21T22:09:48.270Z,12.33
2019-03-21T22:12:18.251Z,13.10
2019-03-21T22:14:48.475Z,12.17
2019-03-21T22:17:18.400Z,12.13
2019-03-21T22:19:48.677Z,13.10
2019-03-21T22:22:19.409Z,13.53
2019-03-21T22:24:49.385Z,13.47
2019-03-21T22:27:19.718Z,12.43
2019-03-21T22:29:49.693Z,12.40
2019-03-21T22:32:19.653Z,13.77
2019-03-21T22:34:50.358Z,12.97
2019-03-21T22:37:20.713Z,12.43
2019-03-21T22:39:50.681Z,12.97
2019-03-21T22:42:20.681Z,12.20
2019-03-21T22:44:50.700Z,13.30
2019-03-21T22:47:21.098Z,14.00
2019-03-21T22:49:51.092Z,13.23
2019-03-21T22:52:21.021Z,15.33
2019-03-21T22:54:51.025Z,13.77
2019-03-21T22:57:20.923Z,15.00
2019-03-21T22:59:50.921Z,13.40
2019-03-21T23:02:20.912Z,12.50
2019-03-21T23:04:50.827Z,14.03
2019-03-21T23:07:21.205Z,13.53
2019-03-21T23:09:51.445Z,14.00
2019-03-21T23:12:21.335Z,13.17
2019-03-21T23:14:51.344Z,13.30
2019-03-21T23:17:21.292Z,15.00
2019-03-21T23:19:51.248Z,14.67
2019-03-21T23:22:21.215Z,15.67
2019-03-21T23:24:51.580Z,15.13
2019-03-21T23:27:21.533Z,16.27
2019-03-21T23:29:51.798Z,15.80
2019-03-21T23:32:21.825Z,16.23
2019-03-21T23:34:51.756Z,16.13
2019-03-21T23:37:21.732Z,15.60
2019-03-21T23:39:51.966Z,16.00
2019-03-21T23:42:22.292Z,17.73
2019-03-21T23:44:52.269Z,17.73
2019-03-21T23:47:22.620Z,19.17
2019-03-21T23:49:52.524Z,18.23
2019-03-21T23:52:22.869Z,18.53
2019-03-21T23:54:52.776Z,18.57
2019-03-21T23:57:23.474Z,17.70
2019-03-21T23:59:53.736Z,17.40
